Terminal Aerodrome Forecast
Issued by NWS Wilmington, OH

Current Version | Previous Version | Text Only | Print | Product List | Glossary Off
Versions: 1 2 3 4 5 6 7 8 9 10 11 12 13 14 15 16 17 18 19 20

000
FTUS41 KILN 230500
TAFDAY
TAF
KDAY 230536Z 2306/2406 24006KT P6SM SCT080 BKN250
     FM231100 24006KT P6SM VCTS BKN040CB
     FM231400 29010KT 5SM -SHRA VCTS OVC040CB
     FM231800 34010KT P6SM BKN040
     FM232300 01010KT P6SM BKN100
     FM240500 01008KT P6SM SCT100=

USA.gov is the U.S. government's official web portal to all federal, state and local government web resources and services.